Time;durP1;ratioP1;P1;durP2;ratioP2;P2;SDS_P1;SDS_P2;PMS_P1;PMS_P2;Temp;Humidity;BMP_temperature;BMP_pressure;BME280_temperature;BME280_humidity;BME280_pressure;Samples;Min_cycle;Max_cycle;Signal;HPM_P1;HPM_P2
2023/04/08 00:02:21;;;;;;;10.80;9.50;;;;;;;12.20;65.98;100518.80;109319;1254;65325;-72
2023/04/08 00:04:49;;;;;;;11.10;9.40;;;;;;;12.19;66.06;100515.17;109409;1254;59159;-73
2023/04/08 00:07:18;;;;;;;11.30;8.90;;;;;;;12.20;66.01;100510.41;109361;1254;64024;-71
2023/04/08 00:09:46;;;;;;;10.60;8.50;;;;;;;12.21;66.15;100509.21;109169;1254;58257;-72
2023/04/08 00:12:15;;;;;;;11.00;8.60;;;;;;;12.21;66.20;100507.13;109390;1254;58217;-72
2023/04/08 00:14:43;;;;;;;10.40;8.50;;;;;;;12.21;66.09;100508.85;109376;1254;64776;-71
2023/04/08 00:17:11;;;;;;;9.80;8.70;;;;;;;12.19;66.15;100509.52;109415;1254;59374;-71
2023/04/08 00:19:40;;;;;;;10.40;8.80;;;;;;;12.19;66.17;100509.73;109097;1254;63824;-71
2023/04/08 00:22:08;;;;;;;10.30;8.20;;;;;;;12.19;66.13;100508.67;109360;1254;58455;-71
2023/04/08 00:24:37;;;;;;;10.50;8.40;;;;;;;12.18;66.25;100509.09;109339;1254;58194;-72
2023/04/08 00:27:05;;;;;;;12.10;8.70;;;;;;;12.18;66.28;100510.38;109335;1255;66151;-73
2023/04/08 00:29:33;;;;;;;10.00;8.60;;;;;;;12.17;66.29;100508.33;109345;1255;59300;-72
2023/04/08 00:32:02;;;;;;;10.30;8.60;;;;;;;12.16;66.18;100509.48;109321;1255;65060;-72
2023/04/08 00:34:30;;;;;;;11.40;8.50;;;;;;;12.14;66.32;100507.29;109298;1255;58070;-71
2023/04/08 00:37:00;;;;;;;9.40;8.30;;;;;;;12.13;66.40;100504.88;109368;1256;58079;-72
2023/04/08 00:39:28;;;;;;;11.00;8.60;;;;;;;12.13;66.32;100508.13;109115;1254;66329;-72
2023/04/08 00:41:56;;;;;;;11.50;8.40;;;;;;;12.13;66.38;100506.20;109215;1255;58256;-71
2023/04/08 00:44:25;;;;;;;10.50;8.60;;;;;;;12.13;66.41;100503.69;109319;1255;65022;-73
2023/04/08 00:46:53;;;;;;;10.10;8.60;;;;;;;12.13;66.29;100502.27;109340;1255;58086;-72
2023/04/08 00:49:21;;;;;;;11.00;8.70;;;;;;;12.12;66.41;100500.45;109377;1254;58030;-72
2023/04/08 00:51:49;;;;;;;9.70;8.00;;;;;;;12.11;66.41;100502.45;109345;1254;65766;-72
2023/04/08 00:54:17;;;;;;;10.00;8.80;;;;;;;12.10;66.41;100502.36;109343;1255;59087;-72
2023/04/08 00:56:45;;;;;;;10.70;9.10;;;;;;;12.09;66.54;100503.89;109069;1262;64974;-72
2023/04/08 00:59:14;;;;;;;10.30;9.00;;;;;;;12.09;66.62;100504.59;109302;1255;58208;-72
2023/04/08 01:01:42;;;;;;;11.30;9.20;;;;;;;12.09;66.64;100505.79;109049;1256;58093;-72
2023/04/08 01:04:22;;;;;;;10.70;9.10;;;;;;;12.11;66.75;100505.32;109206;1255;66140;-72
2023/04/08 01:07:28;;;;;;;11.90;8.90;;;;;;;12.12;66.73;100512.06;109200;1255;59370;-72
2023/04/08 01:10:01;;;;;;;11.80;9.00;;;;;;;12.14;66.71;100514.23;109306;1255;65152;-72
2023/04/08 01:12:31;;;;;;;11.30;9.30;;;;;;;12.14;66.69;100523.40;109111;1256;58105;-72
2023/04/08 01:15:03;;;;;;;11.00;8.90;;;;;;;12.12;66.76;100520.52;109085;1255;58036;-72
2023/04/08 01:17:32;;;;;;;10.40;9.10;;;;;;;12.10;66.57;100522.71;109101;1254;64906;-72
2023/04/08 01:20:02;;;;;;;10.00;8.30;;;;;;;12.07;66.53;100522.36;109335;1256;58284;-72
2023/04/08 01:23:04;;;;;;;12.20;8.10;;;;;;;12.05;66.56;100519.20;109109;1256;65307;-72
2023/04/08 01:25:34;;;;;;;11.10;8.40;;;;;;;12.02;66.64;100520.45;109172;1256;58212;-72
2023/04/08 01:28:05;;;;;;;11.40;8.90;;;;;;;12.00;66.57;100517.48;109011;1256;58491;-72
2023/04/08 01:30:33;;;;;;;11.60;8.50;;;;;;;11.99;66.56;100515.99;109065;1256;66021;-72
2023/04/08 01:33:02;;;;;;;11.60;9.00;;;;;;;11.98;66.65;100517.47;109018;1256;59194;-72
2023/04/08 01:35:31;;;;;;;11.90;8.90;;;;;;;11.97;66.76;100519.15;109277;1255;64004;-72
2023/04/08 01:37:59;;;;;;;9.50;8.00;;;;;;;11.96;66.65;100521.68;109046;1256;58110;-72
2023/04/08 01:40:27;;;;;;;10.10;8.80;;;;;;;11.96;66.64;100525.77;109079;1255;58122;-72
2023/04/08 01:42:56;;;;;;;12.10;9.50;;;;;;;11.96;66.72;100525.05;109071;1256;65873;-72
2023/04/08 01:45:24;;;;;;;11.40;8.60;;;;;;;11.96;66.62;100523.98;109298;1259;59348;-74
2023/04/08 01:47:52;;;;;;;11.80;9.30;;;;;;;11.96;66.75;100525.04;109232;1255;64949;-74
2023/04/08 01:50:22;;;;;;;10.80;9.10;;;;;;;11.96;66.82;100526.27;109127;1256;58209;-74
2023/04/08 01:52:52;;;;;;;13.40;9.50;;;;;;;11.97;66.92;100526.72;109295;1255;58112;-74
2023/04/08 01:55:21;;;;;;;12.00;9.90;;;;;;;11.97;66.78;100523.70;109038;1256;66608;-73
2023/04/08 01:57:51;;;;;;;15.00;9.50;;;;;;;11.97;66.87;100522.12;109069;1256;58521;-73
2023/04/08 02:00:22;;;;;;;11.50;9.20;;;;;;;11.97;66.87;100521.45;108993;1256;64310;-72
2023/04/08 02:02:53;;;;;;;12.10;9.90;;;;;;;11.96;66.90;100517.99;108977;1262;58214;-72
2023/04/08 02:05:21;;;;;;;10.70;9.00;;;;;;;11.94;67.00;100516.89;109064;1256;58489;-73
2023/04/08 02:07:50;;;;;;;12.10;9.90;;;;;;;11.94;66.92;100519.40;109217;1256;65859;-73
2023/04/08 02:10:24;;;;;;;12.70;10.10;;;;;;;11.94;67.08;100516.37;109113;1256;59190;-73
2023/04/08 02:12:52;;;;;;;12.20;9.80;;;;;;;11.94;67.01;100513.55;109094;1256;63709;-73
2023/04/08 02:15:21;;;;;;;12.40;9.80;;;;;;;11.94;67.03;100512.38;109091;1256;58446;-72
2023/04/08 02:18:06;;;;;;;12.70;10.30;;;;;;;11.93;67.14;100514.54;109056;1261;58098;-73
2023/04/08 02:20:43;;;;;;;11.00;9.50;;;;;;;11.92;67.23;100511.64;109055;1256;65178;-73
2023/04/08 02:27:36;;;;;;;13.20;10.10;;;;;;;11.92;67.11;100510.00;109038;1257;64962;-73
2023/04/08 02:30:06;;;;;;;12.20;10.00;;;;;;;11.91;67.09;100512.05;109043;1257;58167;-73
2023/04/08 02:32:37;;;;;;;14.00;10.30;;;;;;;11.90;67.19;100506.34;108966;1257;58251;-74
2023/04/08 02:35:06;;;;;;;13.50;10.10;;;;;;;11.90;67.24;100505.67;109114;1258;65104;-73
2023/04/08 02:37:34;;;;;;;11.60;9.90;;;;;;;11.89;67.29;100505.36;109025;1257;59213;-74
2023/04/08 02:40:02;;;;;;;14.90;9.90;;;;;;;11.89;67.25;100510.63;109048;1257;65092;-73
2023/04/08 02:42:31;;;;;;;14.50;10.40;;;;;;;11.89;67.23;100508.76;109025;1257;58144;-74
2023/04/08 02:44:59;;;;;;;13.10;10.00;;;;;;;11.87;67.15;100513.83;109093;1257;58045;-74
2023/04/08 02:47:27;;;;;;;12.10;10.20;;;;;;;11.84;67.25;100515.47;109082;1258;65157;-74
2023/04/08 02:49:55;;;;;;;13.20;10.40;;;;;;;11.84;67.24;100514.96;109015;1257;59706;-75
2023/04/08 02:52:39;;;;;;;12.10;9.60;;;;;;;11.83;67.33;100515.38;109102;1257;64932;-74
2023/04/08 02:55:09;;;;;;;12.70;9.20;;;;;;;11.82;67.42;100512.98;109082;1256;58162;-74
2023/04/08 02:57:41;;;;;;;14.80;10.20;;;;;;;11.81;67.36;100510.45;109028;1257;58199;-74
2023/04/08 03:00:14;;;;;;;14.00;10.00;;;;;;;11.80;67.20;100509.30;108987;1259;66178;-74
2023/04/08 03:02:45;;;;;;;13.50;9.80;;;;;;;11.80;67.29;100511.45;109112;1257;59774;-74
2023/04/08 03:05:15;;;;;;;12.80;10.40;;;;;;;11.80;67.43;100516.54;109149;1257;65029;-75
2023/04/08 03:07:43;;;;;;;14.00;9.70;;;;;;;11.80;67.37;100516.86;109091;1257;58170;-74
2023/04/08 03:10:12;;;;;;;16.80;9.90;;;;;;;11.79;67.44;100514.45;109064;1259;58061;-75
2023/04/08 03:12:41;;;;;;;11.50;9.70;;;;;;;11.79;67.46;100518.02;109115;1256;66544;-74
2023/04/08 03:15:09;;;;;;;12.70;9.60;;;;;;;11.77;67.50;100520.25;109154;1257;59307;-74
2023/04/08 03:17:38;;;;;;;11.40;9.80;;;;;;;11.76;67.51;100517.80;109088;1258;63982;-74
2023/04/08 03:20:07;;;;;;;12.80;9.90;;;;;;;11.78;67.40;100516.66;109067;1257;58224;-74
2023/04/08 03:22:35;;;;;;;13.60;9.80;;;;;;;11.78;67.46;100517.76;109128;1257;58153;-74
2023/04/08 03:25:04;;;;;;;11.70;9.10;;;;;;;11.75;67.56;100518.62;109078;1259;66165;-74
2023/04/08 03:27:32;;;;;;;13.40;10.00;;;;;;;11.74;67.79;100521.53;109067;1257;58223;-75
2023/04/08 03:30:01;;;;;;;14.80;10.00;;;;;;;11.75;67.78;100523.94;109058;1257;63664;-72
2023/04/08 03:32:30;;;;;;;14.10;9.80;;;;;;;11.75;67.89;100523.05;109033;1262;58232;-73
2023/04/08 03:34:59;;;;;;;12.40;9.50;;;;;;;11.77;68.02;100527.13;109031;1257;58227;-73
2023/04/08 03:37:27;;;;;;;12.10;9.10;;;;;;;11.79;67.89;100528.02;109045;1257;66160;-73
2023/04/08 03:39:56;;;;;;;13.00;10.00;;;;;;;11.79;68.08;100534.39;109128;1257;59477;-73
2023/04/08 03:42:24;;;;;;;12.70;9.40;;;;;;;11.80;68.08;100534.89;109039;1257;63969;-72
2023/04/08 03:44:53;;;;;;;10.80;9.40;;;;;;;11.81;68.11;100536.90;108954;1257;58261;-73
2023/04/08 03:47:22;;;;;;;12.40;9.60;;;;;;;11.82;68.06;100535.80;109037;1257;58103;-73
2023/04/08 03:49:53;;;;;;;11.80;9.40;;;;;;;11.82;68.22;100537.02;109065;1257;65133;-73
2023/04/08 03:52:21;;;;;;;11.30;9.20;;;;;;;11.81;68.20;100538.13;109004;1257;60876;-73
2023/04/08 03:54:49;;;;;;;14.70;9.10;;;;;;;11.79;68.13;100537.90;109083;1257;64963;-73
2023/04/08 03:57:18;;;;;;;11.60;9.50;;;;;;;11.79;68.18;100539.88;109014;1258;58142;-73
2023/04/08 03:59:47;;;;;;;13.20;9.60;;;;;;;11.79;68.15;100540.74;109051;1257;58009;-73
2023/04/08 04:02:16;;;;;;;11.30;9.30;;;;;;;11.80;68.25;100539.27;108970;1259;65192;-73
2023/04/08 04:04:45;;;;;;;11.10;9.40;;;;;;;11.81;68.27;100542.36;109096;1257;59362;-73
2023/04/08 04:07:13;;;;;;;12.50;10.00;;;;;;;11.83;68.30;100542.60;109043;1259;65085;-73
2023/04/08 04:09:41;;;;;;;11.70;9.20;;;;;;;11.85;68.24;100543.10;108938;1259;58090;-74
2023/04/08 04:12:09;;;;;;;13.30;9.60;;;;;;;11.88;68.30;100545.86;109044;1257;98058;-73
2023/04/08 04:14:38;;;;;;;13.50;9.50;;;;;;;11.91;68.34;100549.16;109070;1258;64958;-74
2023/04/08 04:17:06;;;;;;;11.90;9.60;;;;;;;11.95;68.44;100548.82;109104;1258;59100;-74
2023/04/08 04:19:35;;;;;;;12.10;10.20;;;;;;;11.96;68.47;100548.31;109046;1258;64768;-73
2023/04/08 04:22:07;;;;;;;12.00;9.70;;;;;;;11.99;68.53;100553.03;109096;1257;58019;-73
2023/04/08 04:24:36;;;;;;;14.00;10.30;;;;;;;12.01;68.41;100556.58;109058;1259;58125;-73
2023/04/08 04:27:04;;;;;;;12.40;10.00;;;;;;;12.02;68.55;100559.09;109023;1258;66120;-73
2023/04/08 04:29:34;;;;;;;13.50;9.40;;;;;;;12.06;68.56;100561.86;109050;1259;58472;-74
2023/04/08 04:32:05;;;;;;;12.40;9.40;;;;;;;12.09;68.63;100561.97;108988;1259;65100;-73
2023/04/08 04:34:35;;;;;;;12.00;9.80;;;;;;;12.11;68.71;100561.92;109012;1259;58073;-73
2023/04/08 04:37:03;;;;;;;12.10;10.10;;;;;;;12.16;68.79;100562.25;108908;1259;58154;-73
2023/04/08 04:39:34;;;;;;;15.90;10.70;;;;;;;12.18;68.86;100563.66;109061;1259;66138;-74
2023/04/08 04:42:03;;;;;;;13.20;10.50;;;;;;;12.21;68.98;100567.66;109086;1259;58227;-73
2023/04/08 04:44:32;;;;;;;13.60;10.60;;;;;;;12.25;68.97;100571.13;108931;1259;64807;-73
2023/04/08 04:47:00;;;;;;;13.70;10.80;;;;;;;12.31;68.94;100571.56;108888;1258;58194;-74
2023/04/08 04:49:28;;;;;;;12.70;10.80;;;;;;;12.35;69.05;100577.06;109064;1262;58184;-74
2023/04/08 04:52:00;;;;;;;13.70;11.10;;;;;;;12.40;69.23;100578.09;109074;1259;66071;-74
2023/04/08 04:54:30;;;;;;;13.10;10.70;;;;;;;12.44;69.12;100577.91;109085;1258;58956;-74
2023/04/08 04:56:59;;;;;;;15.30;11.20;;;;;;;12.47;69.15;100580.98;109005;1257;65000;-74
2023/04/08 04:59:34;;;;;;;14.30;11.20;;;;;;;12.51;69.09;100580.98;109074;1257;58242;-74
2023/04/08 05:02:02;;;;;;;12.90;10.20;;;;;;;12.55;69.22;100585.23;108886;1257;60621;-73
2023/04/08 05:04:31;;;;;;;11.90;10.30;;;;;;;12.58;69.18;100587.60;109057;1258;66174;-73
2023/04/08 05:07:01;;;;;;;14.40;10.60;;;;;;;12.63;69.06;100586.67;109081;1258;59151;-74
2023/04/08 05:09:30;;;;;;;13.40;9.90;;;;;;;12.69;69.12;100583.25;109093;1258;65191;-71
2023/04/08 05:11:59;;;;;;;14.00;10.70;;;;;;;12.72;69.24;100584.14;108996;1257;58092;-71
2023/04/08 05:14:29;;;;;;;15.30;10.30;;;;;;;12.77;69.17;100583.59;109046;1258;58164;-72
2023/04/08 05:17:00;;;;;;;14.40;10.70;;;;;;;12.80;69.07;100586.69;109103;1258;65228;-72
2023/04/08 05:19:28;;;;;;;14.20;10.10;;;;;;;12.84;69.08;100591.66;109100;1258;58504;-71
2023/04/08 05:22:00;;;;;;;17.10;10.60;;;;;;;12.88;68.97;100590.38;109105;1257;63673;-71
2023/04/08 05:24:29;;;;;;;15.60;11.00;;;;;;;12.93;68.95;100591.90;108993;1258;58160;-72
2023/04/08 05:27:00;;;;;;;13.70;10.30;;;;;;;12.98;68.90;100590.95;108958;1259;58183;-72
2023/04/08 05:29:33;;;;;;;13.50;9.50;;;;;;;13.02;68.76;100593.23;108897;1259;66263;-72
2023/04/08 05:32:05;;;;;;;14.00;9.90;;;;;;;13.06;68.74;100598.09;108953;1259;58526;-70
2023/04/08 05:34:36;;;;;;;11.40;9.60;;;;;;;13.09;68.73;100600.02;108951;1258;64992;-71
2023/04/08 05:37:07;;;;;;;13.40;9.60;;;;;;;13.13;68.61;100600.22;109026;1259;57947;-71
2023/04/08 05:39:37;;;;;;;11.70;8.50;;;;;;;13.18;68.40;100601.44;108956;1259;58211;-71
2023/04/08 05:42:08;;;;;;;13.40;9.20;;;;;;;13.23;68.31;100603.14;108943;1259;65128;-72
2023/04/08 05:44:40;;;;;;;16.30;9.00;;;;;;;13.28;68.49;100608.35;108965;1259;59365;-71
2023/04/08 05:47:13;;;;;;;11.40;8.00;;;;;;;13.33;68.17;100609.01;109011;1259;64068;-71
2023/04/08 05:49:44;;;;;;;11.60;8.40;;;;;;;13.36;68.14;100609.08;108951;1259;58146;-71
2023/04/08 05:52:15;;;;;;;12.70;8.30;;;;;;;13.38;67.91;100610.98;108910;1259;58150;-71
2023/04/08 05:54:47;;;;;;;9.30;7.80;;;;;;;13.41;67.72;100611.42;108890;1259;64975;-72
2023/04/08 05:57:19;;;;;;;10.10;7.70;;;;;;;13.46;67.54;100610.14;109050;1259;58278;-71
2023/04/08 05:59:52;;;;;;;10.70;8.00;;;;;;;13.51;67.42;100614.00;108968;1259;62473;-72
2023/04/08 06:02:22;;;;;;;12.30;8.30;;;;;;;13.55;67.43;100616.58;108937;1259;58196;-72
2023/04/08 06:04:54;;;;;;;13.30;8.10;;;;;;;13.57;67.21;100616.58;108893;1259;58039;-71
2023/04/08 06:07:27;;;;;;;11.40;8.10;;;;;;;13.58;66.91;100612.08;108880;1259;66162;-72
2023/04/08 06:09:58;;;;;;;13.30;7.80;;;;;;;13.60;67.00;100610.16;108992;1259;59116;-72
2023/04/08 06:12:30;;;;;;;11.00;7.90;;;;;;;13.66;66.94;100605.40;108946;1259;64163;-72
2023/04/08 06:15:03;;;;;;;13.60;7.90;;;;;;;13.71;66.87;100602.59;108885;1259;58176;-71
2023/04/08 06:17:38;;;;;;;9.30;7.40;;;;;;;13.76;66.90;100604.27;108949;1259;58249;-73
2023/04/08 06:20:10;;;;;;;12.40;7.80;;;;;;;13.83;66.73;100605.66;108942;1259;63782;-72
2023/04/08 06:22:42;;;;;;;11.70;7.20;;;;;;;13.90;66.51;100605.88;108925;1259;58250;-73
2023/04/08 06:32:49;;;;;;;11.90;6.80;;;;;;;14.06;65.91;100611.67;102531;1294;600848;-73
2023/04/08 06:35:18;;;;;;;14.10;7.80;;;;;;;14.08;65.84;100615.79;105192;1266;59271;-73
2023/04/08 06:37:48;;;;;;;12.60;7.20;;;;;;;14.14;65.83;100622.08;105092;1267;59398;-75
2023/04/08 06:40:16;;;;;;;11.10;6.80;;;;;;;14.22;65.69;100625.44;105057;1264;64303;-73
2023/04/08 06:42:50;;;;;;;13.30;7.20;;;;;;;14.28;65.39;100629.48;105597;1264;59703;-73
2023/04/08 06:45:22;;;;;;;10.90;6.40;;;;;;;14.34;65.25;100631.23;106373;1264;172184;-74
2023/04/08 06:47:55;;;;;;;9.70;6.00;;;;;;;14.40;65.09;100637.62;105330;1260;59335;-75
2023/04/08 06:50:26;;;;;;;14.10;6.20;;;;;;;14.44;64.92;100639.38;105633;1254;59352;-72
2023/04/08 06:52:59;;;;;;;11.70;5.80;;;;;;;14.50;64.57;100643.64;105759;1260;65151;-73
2023/04/08 06:55:28;;;;;;;12.00;5.80;;;;;;;14.58;64.26;100645.09;105590;1254;60038;-74
2023/04/08 06:57:57;;;;;;;11.80;6.10;;;;;;;14.64;63.94;100648.55;105503;1260;64700;-73
2023/04/08 07:00:27;;;;;;;8.90;5.70;;;;;;;14.67;63.57;100649.16;105526;1257;59676;-73
2023/04/08 07:03:11;;;;;;;12.60;6.70;;;;;;;14.73;63.58;100650.36;105804;1254;59784;-71
2023/04/08 07:05:41;;;;;;;12.10;5.50;;;;;;;14.81;63.34;100650.39;105868;1255;66172;-74
2023/04/08 07:08:12;;;;;;;11.80;5.40;;;;;;;14.84;63.04;100649.20;106014;1253;59617;-73
2023/04/08 07:10:41;;;;;;;12.40;5.70;;;;;;;14.89;62.85;100649.41;105829;1257;65494;-73
2023/04/08 07:13:10;;;;;;;10.80;5.40;;;;;;;14.96;62.68;100648.62;105712;1254;59644;-74
2023/04/08 07:15:38;;;;;;;12.00;5.70;;;;;;;15.05;62.37;100649.48;106172;1254;59697;-73
2023/04/08 07:18:07;;;;;;;11.40;5.20;;;;;;;15.13;62.38;100649.08;105738;1254;65101;-73
2023/04/08 07:20:38;;;;;;;10.40;5.10;;;;;;;15.21;61.98;100651.96;105985;1256;59771;-75
2023/04/08 07:23:10;;;;;;;9.50;4.80;;;;;;;15.22;61.44;100652.55;105803;1254;65505;-74
2023/04/08 07:25:40;;;;;;;13.10;5.30;;;;;;;15.19;61.18;100654.27;105782;1257;59648;-74
2023/04/08 07:28:11;;;;;;;10.00;5.30;;;;;;;15.17;60.96;100652.86;105621;1257;59548;-73
2023/04/08 07:30:40;;;;;;;9.10;5.60;;;;;;;15.14;60.61;100655.63;105392;1264;65981;-73
2023/04/08 07:33:08;;;;;;;8.80;5.00;;;;;;;15.12;60.57;100657.23;105769;1254;59967;-74
2023/04/08 07:35:38;;;;;;;10.50;5.20;;;;;;;15.15;60.77;100655.98;106273;1254;64539;-72
2023/04/08 07:38:10;;;;;;;13.60;5.50;;;;;;;15.20;60.61;100652.05;106503;1254;59663;-72
2023/04/08 07:40:38;;;;;;;12.10;5.50;;;;;;;15.18;60.09;100650.96;105883;1254;59544;-73
2023/04/08 07:43:09;;;;;;;15.80;5.50;;;;;;;15.18;60.25;100648.84;105593;1260;66291;-71
2023/04/08 07:45:37;;;;;;;10.60;5.70;;;;;;;15.25;60.53;100644.30;105687;1254;59877;-73
2023/04/08 07:48:07;;;;;;;11.40;4.90;;;;;;;15.34;60.58;100642.30;105539;1259;65389;-72
2023/04/08 07:50:37;;;;;;;13.60;6.60;;;;;;;15.43;60.48;100632.42;105692;1254;59665;-75
2023/04/08 07:53:27;;;;;;;11.60;6.30;;;;;;;15.52;60.26;100619.68;105454;1255;59673;-74
2023/04/08 07:55:57;;;;;;;11.60;5.30;;;;;;;15.60;60.11;100617.00;105589;1259;64573;-72
2023/04/08 07:58:26;;;;;;;10.20;5.00;;;;;;;15.68;60.02;100616.52;106043;1254;59682;-73
2023/04/08 08:00:56;;;;;;;12.10;5.30;;;;;;;15.74;59.96;100616.30;105927;1254;65557;-72
2023/04/08 08:03:26;;;;;;;13.10;4.70;;;;;;;15.81;59.76;100617.48;106143;1254;59672;-71
2023/04/08 08:05:54;;;;;;;8.60;4.10;;;;;;;15.91;59.73;100624.06;106579;1254;59509;-71
2023/04/08 08:08:24;;;;;;;12.10;4.60;;;;;;;16.03;59.52;100626.27;105734;1254;65943;-72
2023/04/08 08:10:53;;;;;;;8.60;4.20;;;;;;;16.11;59.02;100628.73;105964;1257;59746;-72
2023/04/08 08:13:21;;;;;;;10.20;4.30;;;;;;;16.18;58.61;100629.27;105778;1257;64211;-72
2023/04/08 08:15:52;;;;;;;8.90;3.60;;;;;;;16.24;58.21;100627.42;105923;1254;59812;-72
2023/04/08 08:18:22;;;;;;;12.30;4.20;;;;;;;16.30;58.12;100632.64;105815;1254;59631;-74
2023/04/08 08:20:50;;;;;;;11.70;3.70;;;;;;;16.39;57.98;100634.23;106095;1254;66223;-69
2023/04/08 08:23:20;;;;;;;10.80;3.70;;;;;;;16.44;57.53;100634.48;105777;1260;60009;-76
2023/04/08 08:25:48;;;;;;;10.50;3.30;;;;;;;16.44;57.12;100636.27;106715;1254;65671;-69
2023/04/08 08:28:21;;;;;;;11.10;3.40;;;;;;;16.47;56.99;100636.77;107610;1254;59727;-73
2023/04/08 08:30:49;;;;;;;12.60;3.50;;;;;;;16.53;56.56;100637.23;105942;1254;59688;-71
2023/04/08 08:33:18;;;;;;;7.70;3.70;;;;;;;16.58;56.14;100641.33;105704;1254;65893;-71
2023/04/08 08:35:46;;;;;;;10.00;3.60;;;;;;;16.62;56.12;100641.51;105583;1254;59977;-70
2023/04/08 08:38:16;;;;;;;10.10;3.40;;;;;;;16.68;56.01;100641.43;105401;1254;64441;-70
2023/04/08 08:40:44;;;;;;;8.50;4.30;;;;;;;16.76;55.98;100644.58;105695;1254;59597;-70
2023/04/08 08:43:13;;;;;;;10.50;3.60;;;;;;;16.86;56.01;100648.85;105642;1254;59730;-72
2023/04/08 08:45:41;;;;;;;10.80;4.50;;;;;;;16.96;55.97;100649.48;105571;1259;66091;-71
2023/04/08 08:48:10;;;;;;;12.60;4.50;;;;;;;17.05;56.04;100646.80;105426;1261;69814;-73
2023/04/08 08:50:38;;;;;;;15.10;4.30;;;;;;;17.10;56.11;100642.88;105482;1259;64543;-70
2023/04/08 08:53:08;;;;;;;9.60;4.20;;;;;;;17.18;56.16;100645.05;105456;1257;59740;-69
2023/04/08 08:55:39;;;;;;;10.20;4.30;;;;;;;17.25;55.83;100651.63;105515;1254;59740;-71
2023/04/08 08:58:27;;;;;;;11.20;5.30;;;;;;;17.33;55.62;100660.08;105581;1254;64716;-73
2023/04/08 09:00:56;;;;;;;10.30;4.30;;;;;;;17.39;55.59;100666.08;105591;1256;59968;-70
2023/04/08 09:03:28;;;;;;;13.00;4.50;;;;;;;17.42;55.26;100671.63;105642;1254;65423;-70
2023/04/08 09:05:59;;;;;;;10.30;4.10;;;;;;;17.41;54.95;100672.35;105441;1254;59592;-71
2023/04/08 09:08:37;;;;;;;10.20;4.40;;;;;;;17.39;54.89;100672.65;105542;1254;59759;-71
2023/04/08 09:11:15;;;;;;;8.90;4.20;;;;;;;17.40;54.97;100671.14;105993;1259;65777;-73
2023/04/08 09:13:45;;;;;;;10.50;4.30;;;;;;;17.40;54.81;100673.38;105453;1260;60098;-71
2023/04/08 09:16:16;;;;;;;11.00;4.00;;;;;;;17.40;54.62;100673.02;105472;1254;65576;-72
2023/04/08 09:18:46;;;;;;;12.90;4.10;;;;;;;17.38;54.72;100670.10;105447;1259;59681;-74
2023/04/08 09:21:18;;;;;;;10.70;4.30;;;;;;;17.40;54.86;100673.29;105700;1254;59743;-72
2023/04/08 09:23:48;;;;;;;9.00;4.50;;;;;;;17.43;54.73;100672.80;105412;1257;66041;-73
2023/04/08 09:26:23;;;;;;;12.10;4.70;;;;;;;17.45;54.48;100669.90;105357;1262;60275;-74
2023/04/08 09:29:06;;;;;;;8.90;4.40;;;;;;;17.47;54.68;100668.91;105879;1255;65510;-75
2023/04/08 09:31:55;;;;;;;11.40;4.20;;;;;;;17.55;54.71;100670.95;105458;1257;59718;-72
2023/04/08 09:34:27;;;;;;;13.10;4.40;;;;;;;17.65;54.78;100668.88;105630;1260;59750;-72
2023/04/08 09:36:56;;;;;;;11.80;4.70;;;;;;;17.78;54.91;100666.84;105309;1256;65936;-73
2023/04/08 09:39:25;;;;;;;10.80;4.30;;;;;;;17.92;54.83;100667.48;105542;1259;60005;-74
2023/04/08 09:41:53;;;;;;;11.50;5.00;;;;;;;18.01;54.47;100668.09;105401;1257;65794;-74
2023/04/08 09:44:22;;;;;;;10.60;4.80;;;;;;;18.09;54.34;100667.80;105239;1254;59527;-74
2023/04/08 09:47:04;;;;;;;14.80;4.80;;;;;;;18.20;54.24;100665.03;105524;1254;59698;-74
2023/04/08 09:49:37;;;;;;;12.80;4.90;;;;;;;18.32;53.78;100663.69;105233;1260;66073;-73
2023/04/08 09:52:29;;;;;;;10.50;4.50;;;;;;;18.43;53.22;100666.24;105195;1256;59904;-73
2023/04/08 09:55:05;;;;;;;11.60;4.40;;;;;;;18.55;52.94;100662.88;105311;1256;65293;-74
2023/04/08 09:57:43;;;;;;;7.60;4.20;;;;;;;18.60;52.23;100663.70;105351;1260;59661;-74
2023/04/08 10:00:15;;;;;;;9.80;4.30;;;;;;;18.62;52.00;100664.23;105495;1261;59551;-74
2023/04/08 10:03:06;;;;;;;11.50;4.30;;;;;;;18.64;51.85;100662.02;105370;1256;66023;-74
2023/04/08 10:05:41;;;;;;;13.20;4.40;;;;;;;18.63;51.07;100664.13;105404;1258;60388;-74
2023/04/08 10:08:09;;;;;;;10.70;4.00;;;;;;;18.50;50.91;100665.50;105327;1260;65655;-74
2023/04/08 10:10:38;;;;;;;13.10;4.70;;;;;;;18.38;50.96;100670.58;105450;1259;59770;-75
2023/04/08 10:13:14;;;;;;;9.80;4.80;;;;;;;18.35;51.48;100670.74;105371;1259;59627;-75
2023/04/08 10:15:44;;;;;;;10.70;4.00;;;;;;;18.39;51.68;100668.91;105413;1259;64841;-76
2023/04/08 10:18:13;;;;;;;11.80;4.50;;;;;;;18.45;51.69;100668.18;105549;1259;59952;-75
2023/04/08 10:20:51;;;;;;;12.00;4.20;;;;;;;18.58;51.63;100666.82;105873;1257;65568;-76
2023/04/08 10:23:20;;;;;;;12.00;4.20;;;;;;;18.74;51.43;100666.86;105785;1259;59710;-75
2023/04/08 10:25:48;;;;;;;11.40;4.10;;;;;;;18.87;50.83;100665.27;105357;1257;59698;-75
2023/04/08 10:28:21;;;;;;;10.00;3.60;;;;;;;19.00;50.19;100663.46;105968;1256;66291;-74
2023/04/08 10:30:51;;;;;;;8.90;3.60;;;;;;;19.07;49.72;100665.71;105625;1254;59721;-75
2023/04/08 10:33:28;;;;;;;10.70;3.80;;;;;;;19.09;49.29;100668.69;105817;1257;65583;-74
2023/04/08 10:36:08;;;;;;;10.60;3.60;;;;;;;19.11;48.92;100668.47;105807;1257;59663;-75
2023/04/08 10:38:38;;;;;;;12.40;3.50;;;;;;;19.13;48.57;100663.01;105617;1254;59648;-76
2023/04/08 10:41:07;;;;;;;9.60;3.50;;;;;;;19.17;48.38;100664.80;105571;1254;65854;-73
2023/04/08 10:43:37;;;;;;;9.80;3.30;;;;;;;19.22;48.16;100668.31;105465;1256;62751;-73
2023/04/08 10:46:09;;;;;;;8.30;3.30;;;;;;;19.26;47.41;100672.48;105478;1254;64371;-74
2023/04/08 10:48:39;;;;;;;11.30;2.90;;;;;;;19.20;46.45;100674.10;106087;1256;60335;-74
2023/04/08 10:51:12;;;;;;;11.00;3.50;;;;;;;19.12;46.66;100678.55;105879;1254;60447;-74
2023/04/08 10:53:44;;;;;;;11.20;3.50;;;;;;;19.14;47.03;100677.42;105794;1254;66761;-75
2023/04/08 10:56:14;;;;;;;10.10;3.40;;;;;;;19.24;47.30;100676.70;105913;1254;60642;-72
2023/04/08 10:58:58;;;;;;;10.40;3.20;;;;;;;19.36;46.89;100671.02;105888;1254;63864;-75
2023/04/08 11:01:26;;;;;;;9.10;2.80;;;;;;;19.52;46.50;100667.64;105983;1259;60389;-75
2023/04/08 11:03:54;;;;;;;10.70;3.40;;;;;;;19.63;45.66;100662.82;105933;1256;60473;-74
2023/04/08 11:06:24;;;;;;;9.90;3.10;;;;;;;19.72;45.02;100661.41;106530;1259;66615;-73
2023/04/08 11:08:53;;;;;;;9.30;3.30;;;;;;;19.78;45.38;100657.73;106245;1259;60428;-81
2023/04/08 11:11:22;;;;;;;9.30;3.10;;;;;;;19.85;45.63;100657.27;106151;1254;65371;-77
2023/04/08 11:13:52;;;;;;;9.00;3.40;;;;;;;19.97;45.44;100658.45;106083;1254;60358;-78
2023/04/08 11:16:22;;;;;;;9.50;3.10;;;;;;;20.00;44.73;100661.41;106154;1260;60355;-80
2023/04/08 11:18:50;;;;;;;11.40;3.10;;;;;;;19.98;44.18;100664.30;106111;1254;66373;-78
2023/04/08 11:21:24;;;;;;;11.10;3.20;;;;;;;19.93;43.93;100664.73;106036;1258;60377;-79
2023/04/08 11:23:52;;;;;;;9.00;3.50;;;;;;;19.85;44.18;100665.64;106007;1260;65672;-77
2023/04/08 11:26:21;;;;;;;11.50;3.30;;;;;;;19.72;44.28;100665.20;106010;1257;60316;-77
2023/04/08 11:28:51;;;;;;;9.70;3.10;;;;;;;19.53;43.73;100664.41;106351;1254;61032;-76
2023/04/08 11:31:19;;;;;;;10.10;3.10;;;;;;;19.31;43.38;100660.89;105863;1261;66512;-75
2023/04/08 11:33:55;;;;;;;10.10;3.50;;;;;;;19.12;43.83;100662.71;105905;1254;60462;-76
2023/04/08 11:36:25;;;;;;;12.40;3.20;;;;;;;18.99;44.65;100657.86;105566;1254;65289;-78
2023/04/08 11:38:54;;;;;;;13.30;3.90;;;;;;;18.92;44.99;100654.49;106753;1254;60540;-77